sensor_id;sensor_type;location;lat;lon;timestamp;P1;durP1;ratioP1;P2;durP2;ratioP2
31018;SDS011;17689;45.610;5.858;2022-08-06T00:02:19;4.90;;;3.73;;
31018;SDS011;17689;45.610;5.858;2022-08-06T00:04:49;4.27;;;3.80;;
31018;SDS011;17689;45.610;5.858;2022-08-06T00:07:15;4.87;;;3.73;;
31018;SDS011;17689;45.610;5.858;2022-08-06T00:09:42;4.07;;;3.67;;
31018;SDS011;17689;45.610;5.858;2022-08-06T00:12:08;4.37;;;3.97;;
31018;SDS011;17689;45.610;5.858;2022-08-06T00:14:34;4.97;;;4.20;;
31018;SDS011;17689;45.610;5.858;2022-08-06T00:17:00;4.93;;;3.87;;
31018;SDS011;17689;45.610;5.858;2022-08-06T00:19:27;4.53;;;3.90;;
31018;SDS011;17689;45.610;5.858;2022-08-06T00:21:53;4.20;;;3.60;;
31018;SDS011;17689;45.610;5.858;2022-08-06T00:24:19;5.17;;;3.70;;
31018;SDS011;17689;45.610;5.858;2022-08-06T00:26:46;4.07;;;3.67;;
31018;SDS011;17689;45.610;5.858;2022-08-06T00:29:12;5.87;;;3.60;;
31018;SDS011;17689;45.610;5.858;2022-08-06T00:31:38;6.27;;;3.83;;
31018;SDS011;17689;45.610;5.858;2022-08-06T00:34:05;4.10;;;3.60;;
31018;SDS011;17689;45.610;5.858;2022-08-06T00:36:32;4.67;;;3.87;;
31018;SDS011;17689;45.610;5.858;2022-08-06T00:39:02;4.53;;;3.70;;
31018;SDS011;17689;45.610;5.858;2022-08-06T00:41:29;4.80;;;4.17;;
31018;SDS011;17689;45.610;5.858;2022-08-06T00:43:56;5.80;;;3.63;;
31018;SDS011;17689;45.610;5.858;2022-08-06T00:46:23;4.40;;;4.00;;
31018;SDS011;17689;45.610;5.858;2022-08-06T00:48:49;5.37;;;3.77;;
31018;SDS011;17689;45.610;5.858;2022-08-06T00:51:15;8.47;;;4.30;;
31018;SDS011;17689;45.610;5.858;2022-08-06T00:53:42;4.23;;;3.83;;
31018;SDS011;17689;45.610;5.858;2022-08-06T00:56:08;4.50;;;3.43;;
31018;SDS011;17689;45.610;5.858;2022-08-06T00:58:34;4.43;;;3.87;;
31018;SDS011;17689;45.610;5.858;2022-08-06T01:01:01;4.20;;;3.80;;
31018;SDS011;17689;45.610;5.858;2022-08-06T01:03:27;5.03;;;3.97;;
31018;SDS011;17689;45.610;5.858;2022-08-06T01:05:53;4.33;;;3.90;;
31018;SDS011;17689;45.610;5.858;2022-08-06T01:08:20;4.90;;;4.07;;
31018;SDS011;17689;45.610;5.858;2022-08-06T01:10:46;5.10;;;4.20;;
31018;SDS011;17689;45.610;5.858;2022-08-06T01:13:12;5.00;;;3.90;;
31018;SDS011;17689;45.610;5.858;2022-08-06T01:15:39;5.13;;;3.90;;
31018;SDS011;17689;45.610;5.858;2022-08-06T01:23:37;5.13;;;4.20;;
31018;SDS011;17689;45.610;5.858;2022-08-06T01:32:05;4.53;;;3.97;;
31018;SDS011;17689;45.610;5.858;2022-08-06T01:34:13;6.30;;;4.23;;
31018;SDS011;17689;45.610;5.858;2022-08-06T01:36:44;4.43;;;3.70;;
31018;SDS011;17689;45.610;5.858;2022-08-06T01:39:12;5.37;;;3.93;;
31018;SDS011;17689;45.610;5.858;2022-08-06T01:41:46;5.17;;;3.70;;
31018;SDS011;17689;45.610;5.858;2022-08-06T01:44:17;5.27;;;4.10;;
31018;SDS011;17689;45.610;5.858;2022-08-06T01:46:48;6.17;;;4.10;;
31018;SDS011;17689;45.610;5.858;2022-08-06T01:49:16;6.40;;;3.43;;
31018;SDS011;17689;45.610;5.858;2022-08-06T01:51:44;5.17;;;4.10;;
31018;SDS011;17689;45.610;5.858;2022-08-06T01:54:11;4.67;;;4.17;;
31018;SDS011;17689;45.610;5.858;2022-08-06T01:56:39;4.43;;;3.80;;
31018;SDS011;17689;45.610;5.858;2022-08-06T01:59:06;4.37;;;3.80;;
31018;SDS011;17689;45.610;5.858;2022-08-06T02:01:34;4.27;;;3.80;;
31018;SDS011;17689;45.610;5.858;2022-08-06T02:04:01;5.07;;;4.07;;
31018;SDS011;17689;45.610;5.858;2022-08-06T02:06:35;4.57;;;3.83;;
31018;SDS011;17689;45.610;5.858;2022-08-06T02:09:03;5.10;;;3.73;;
31018;SDS011;17689;45.610;5.858;2022-08-06T02:11:30;4.20;;;3.80;;
31018;SDS011;17689;45.610;5.858;2022-08-06T02:13:58;4.33;;;3.67;;
31018;SDS011;17689;45.610;5.858;2022-08-06T02:16:28;4.40;;;3.83;;
31018;SDS011;17689;45.610;5.858;2022-08-06T02:18:56;6.00;;;4.03;;
31018;SDS011;17689;45.610;5.858;2022-08-06T02:21:23;4.20;;;3.80;;
31018;SDS011;17689;45.610;5.858;2022-08-06T02:23:50;4.43;;;4.03;;
31018;SDS011;17689;45.610;5.858;2022-08-06T02:26:17;4.20;;;3.90;;
31018;SDS011;17689;45.610;5.858;2022-08-06T02:28:44;4.67;;;3.80;;
31018;SDS011;17689;45.610;5.858;2022-08-06T02:31:11;5.90;;;4.00;;
31018;SDS011;17689;45.610;5.858;2022-08-06T02:33:37;4.50;;;4.10;;
31018;SDS011;17689;45.610;5.858;2022-08-06T02:36:06;4.30;;;3.80;;
31018;SDS011;17689;45.610;5.858;2022-08-06T02:41:01;4.73;;;3.90;;
31018;SDS011;17689;45.610;5.858;2022-08-06T02:43:30;4.63;;;3.87;;
31018;SDS011;17689;45.610;5.858;2022-08-06T02:45:59;4.03;;;3.60;;
31018;SDS011;17689;45.610;5.858;2022-08-06T02:48:27;5.83;;;3.93;;
31018;SDS011;17689;45.610;5.858;2022-08-06T02:50:53;4.67;;;4.00;;
31018;SDS011;17689;45.610;5.858;2022-08-06T02:53:32;5.23;;;4.10;;
31018;SDS011;17689;45.610;5.858;2022-08-06T02:56:03;5.77;;;3.70;;
31018;SDS011;17689;45.610;5.858;2022-08-06T02:58:32;6.07;;;3.80;;
31018;SDS011;17689;45.610;5.858;2022-08-06T03:00:59;4.40;;;4.00;;
31018;SDS011;17689;45.610;5.858;2022-08-06T03:03:30;5.17;;;4.13;;
31018;SDS011;17689;45.610;5.858;2022-08-06T03:05:57;5.17;;;3.97;;
31018;SDS011;17689;45.610;5.858;2022-08-06T03:08:24;4.73;;;3.67;;
31018;SDS011;17689;45.610;5.858;2022-08-06T03:10:52;4.30;;;3.90;;
31018;SDS011;17689;45.610;5.858;2022-08-06T03:13:18;4.33;;;3.80;;
31018;SDS011;17689;45.610;5.858;2022-08-06T03:15:47;4.53;;;4.13;;
31018;SDS011;17689;45.610;5.858;2022-08-06T03:18:14;4.10;;;3.60;;
31018;SDS011;17689;45.610;5.858;2022-08-06T03:20:41;4.00;;;3.70;;
31018;SDS011;17689;45.610;5.858;2022-08-06T03:23:08;4.67;;;3.83;;
31018;SDS011;17689;45.610;5.858;2022-08-06T03:25:34;8.33;;;4.10;;
31018;SDS011;17689;45.610;5.858;2022-08-06T03:28:01;27.17;;;5.77;;
31018;SDS011;17689;45.610;5.858;2022-08-06T03:30:27;4.67;;;4.07;;
31018;SDS011;17689;45.610;5.858;2022-08-06T03:32:54;4.60;;;4.10;;
31018;SDS011;17689;45.610;5.858;2022-08-06T03:35:20;5.90;;;4.00;;
31018;SDS011;17689;45.610;5.858;2022-08-06T03:37:47;4.40;;;3.97;;
31018;SDS011;17689;45.610;5.858;2022-08-06T03:40:14;6.43;;;4.03;;
31018;SDS011;17689;45.610;5.858;2022-08-06T03:42:40;4.40;;;4.00;;
31018;SDS011;17689;45.610;5.858;2022-08-06T03:45:07;4.40;;;4.00;;
31018;SDS011;17689;45.610;5.858;2022-08-06T03:47:36;4.10;;;3.70;;
31018;SDS011;17689;45.610;5.858;2022-08-06T03:50:16;5.47;;;4.20;;
31018;SDS011;17689;45.610;5.858;2022-08-06T03:52:46;5.63;;;3.97;;
31018;SDS011;17689;45.610;5.858;2022-08-06T03:55:20;7.60;;;4.50;;
31018;SDS011;17689;45.610;5.858;2022-08-06T03:57:48;9.50;;;4.47;;
31018;SDS011;17689;45.610;5.858;2022-08-06T04:00:16;4.77;;;4.30;;
31018;SDS011;17689;45.610;5.858;2022-08-06T04:02:44;5.20;;;4.63;;
31018;SDS011;17689;45.610;5.858;2022-08-06T04:05:13;5.80;;;4.20;;
31018;SDS011;17689;45.610;5.858;2022-08-06T04:07:40;5.83;;;4.07;;
31018;SDS011;17689;45.610;5.858;2022-08-06T04:10:07;6.23;;;4.30;;
31018;SDS011;17689;45.610;5.858;2022-08-06T04:12:33;5.67;;;4.17;;
31018;SDS011;17689;45.610;5.858;2022-08-06T04:15:00;4.63;;;4.10;;
31018;SDS011;17689;45.610;5.858;2022-08-06T04:17:27;5.37;;;4.30;;
31018;SDS011;17689;45.610;5.858;2022-08-06T04:19:53;6.10;;;3.90;;
31018;SDS011;17689;45.610;5.858;2022-08-06T04:22:20;4.67;;;4.23;;
31018;SDS011;17689;45.610;5.858;2022-08-06T04:24:46;5.07;;;4.57;;
31018;SDS011;17689;45.610;5.858;2022-08-06T04:27:13;5.30;;;4.43;;
31018;SDS011;17689;45.610;5.858;2022-08-06T04:29:39;5.30;;;4.00;;
31018;SDS011;17689;45.610;5.858;2022-08-06T04:32:06;9.40;;;4.40;;
31018;SDS011;17689;45.610;5.858;2022-08-06T04:34:33;4.60;;;4.20;;
31018;SDS011;17689;45.610;5.858;2022-08-06T04:37:00;6.47;;;4.33;;
31018;SDS011;17689;45.610;5.858;2022-08-06T04:39:27;6.97;;;4.57;;
31018;SDS011;17689;45.610;5.858;2022-08-06T04:41:54;4.67;;;4.27;;
31018;SDS011;17689;45.610;5.858;2022-08-06T04:44:20;6.67;;;4.23;;
31018;SDS011;17689;45.610;5.858;2022-08-06T04:46:46;4.57;;;4.17;;
31018;SDS011;17689;45.610;5.858;2022-08-06T04:49:14;7.10;;;4.80;;
31018;SDS011;17689;45.610;5.858;2022-08-06T04:51:41;5.60;;;4.30;;
31018;SDS011;17689;45.610;5.858;2022-08-06T04:54:11;4.70;;;4.10;;
31018;SDS011;17689;45.610;5.858;2022-08-06T04:56:37;7.17;;;4.67;;
31018;SDS011;17689;45.610;5.858;2022-08-06T04:59:04;5.23;;;4.17;;
31018;SDS011;17689;45.610;5.858;2022-08-06T05:01:30;5.80;;;4.30;;
31018;SDS011;17689;45.610;5.858;2022-08-06T05:03:56;5.83;;;4.37;;
31018;SDS011;17689;45.610;5.858;2022-08-06T05:06:31;5.27;;;3.90;;
31018;SDS011;17689;45.610;5.858;2022-08-06T05:09:00;4.80;;;4.23;;
31018;SDS011;17689;45.610;5.858;2022-08-06T05:11:29;5.10;;;4.63;;
31018;SDS011;17689;45.610;5.858;2022-08-06T05:13:58;4.70;;;3.90;;
31018;SDS011;17689;45.610;5.858;2022-08-06T05:16:24;6.20;;;4.50;;
31018;SDS011;17689;45.610;5.858;2022-08-06T05:18:53;5.00;;;4.33;;
31018;SDS011;17689;45.610;5.858;2022-08-06T05:21:21;4.93;;;4.43;;
31018;SDS011;17689;45.610;5.858;2022-08-06T05:23:48;4.40;;;3.73;;
31018;SDS011;17689;45.610;5.858;2022-08-06T05:26:15;6.43;;;4.00;;
31018;SDS011;17689;45.610;5.858;2022-08-06T05:28:42;8.27;;;4.23;;
31018;SDS011;17689;45.610;5.858;2022-08-06T05:31:08;4.80;;;4.13;;
31018;SDS011;17689;45.610;5.858;2022-08-06T05:33:36;4.87;;;3.73;;
31018;SDS011;17689;45.610;5.858;2022-08-06T05:36:04;5.17;;;4.43;;
31018;SDS011;17689;45.610;5.858;2022-08-06T05:38:31;8.30;;;4.37;;
31018;SDS011;17689;45.610;5.858;2022-08-06T05:40:58;4.50;;;4.10;;
31018;SDS011;17689;45.610;5.858;2022-08-06T05:43:24;5.60;;;4.77;;
31018;SDS011;17689;45.610;5.858;2022-08-06T05:45:55;5.70;;;4.40;;
31018;SDS011;17689;45.610;5.858;2022-08-06T05:48:22;5.30;;;4.80;;
31018;SDS011;17689;45.610;5.858;2022-08-06T05:50:55;5.70;;;5.10;;
31018;SDS011;17689;45.610;5.858;2022-08-06T05:53:30;7.10;;;5.10;;
31018;SDS011;17689;45.610;5.858;2022-08-06T05:55:57;6.93;;;5.13;;
31018;SDS011;17689;45.610;5.858;2022-08-06T05:58:30;5.77;;;4.63;;
31018;SDS011;17689;45.610;5.858;2022-08-06T06:00:58;5.43;;;4.93;;
31018;SDS011;17689;45.610;5.858;2022-08-06T06:03:25;7.13;;;5.10;;
31018;SDS011;17689;45.610;5.858;2022-08-06T06:05:52;6.23;;;4.87;;
31018;SDS011;17689;45.610;5.858;2022-08-06T06:08:19;5.50;;;4.93;;
31018;SDS011;17689;45.610;5.858;2022-08-06T06:10:46;6.20;;;5.60;;
31018;SDS011;17689;45.610;5.858;2022-08-06T06:13:13;7.97;;;4.90;;
31018;SDS011;17689;45.610;5.858;2022-08-06T06:15:42;6.37;;;4.93;;
31018;SDS011;17689;45.610;5.858;2022-08-06T06:25:43;5.80;;;4.80;;
31018;SDS011;17689;45.610;5.858;2022-08-06T06:30:57;7.27;;;4.70;;
31018;SDS011;17689;45.610;5.858;2022-08-06T06:33:38;5.23;;;4.63;;
31018;SDS011;17689;45.610;5.858;2022-08-06T06:36:08;6.37;;;4.73;;
31018;SDS011;17689;45.610;5.858;2022-08-06T06:38:42;6.17;;;4.13;;
31018;SDS011;17689;45.610;5.858;2022-08-06T06:41:26;6.30;;;4.63;;
31018;SDS011;17689;45.610;5.858;2022-08-06T06:46:43;4.67;;;4.17;;
31018;SDS011;17689;45.610;5.858;2022-08-06T06:51:58;6.27;;;4.47;;
31018;SDS011;17689;45.610;5.858;2022-08-06T06:54:35;4.87;;;4.47;;
31018;SDS011;17689;45.610;5.858;2022-08-06T06:57:02;5.47;;;3.97;;
31018;SDS011;17689;45.610;5.858;2022-08-06T06:59:30;5.50;;;4.47;;
31018;SDS011;17689;45.610;5.858;2022-08-06T07:01:58;7.43;;;4.77;;
31018;SDS011;17689;45.610;5.858;2022-08-06T07:04:24;5.83;;;4.50;;
31018;SDS011;17689;45.610;5.858;2022-08-06T07:06:53;4.60;;;4.20;;
31018;SDS011;17689;45.610;5.858;2022-08-06T07:09:23;6.37;;;4.27;;
31018;SDS011;17689;45.610;5.858;2022-08-06T07:11:50;4.37;;;3.80;;
31018;SDS011;17689;45.610;5.858;2022-08-06T07:14:18;6.83;;;4.10;;
31018;SDS011;17689;45.610;5.858;2022-08-06T07:16:46;5.10;;;4.60;;
31018;SDS011;17689;45.610;5.858;2022-08-06T07:19:13;6.03;;;4.37;;
31018;SDS011;17689;45.610;5.858;2022-08-06T07:21:40;4.97;;;4.07;;
31018;SDS011;17689;45.610;5.858;2022-08-06T07:24:07;4.90;;;4.37;;
31018;SDS011;17689;45.610;5.858;2022-08-06T07:26:35;6.27;;;4.33;;
31018;SDS011;17689;45.610;5.858;2022-08-06T07:29:01;5.50;;;4.80;;
31018;SDS011;17689;45.610;5.858;2022-08-06T07:31:28;5.43;;;4.57;;
31018;SDS011;17689;45.610;5.858;2022-08-06T07:33:55;7.20;;;4.40;;
31018;SDS011;17689;45.610;5.858;2022-08-06T07:36:22;4.73;;;4.30;;
31018;SDS011;17689;45.610;5.858;2022-08-06T07:38:48;6.33;;;4.80;;
31018;SDS011;17689;45.610;5.858;2022-08-06T07:41:16;5.10;;;4.40;;
31018;SDS011;17689;45.610;5.858;2022-08-06T07:46:10;5.53;;;4.27;;
31018;SDS011;17689;45.610;5.858;2022-08-06T07:48:50;4.80;;;4.33;;
31018;SDS011;17689;45.610;5.858;2022-08-06T07:51:18;5.03;;;4.33;;
31018;SDS011;17689;45.610;5.858;2022-08-06T07:53:47;4.63;;;4.10;;
31018;SDS011;17689;45.610;5.858;2022-08-06T07:56:14;5.87;;;4.30;;
31018;SDS011;17689;45.610;5.858;2022-08-06T07:58:41;4.90;;;4.50;;
31018;SDS011;17689;45.610;5.858;2022-08-06T08:01:08;5.07;;;4.57;;
31018;SDS011;17689;45.610;5.858;2022-08-06T08:03:34;5.50;;;4.40;;
31018;SDS011;17689;45.610;5.858;2022-08-06T08:06:19;5.87;;;3.97;;
31018;SDS011;17689;45.610;5.858;2022-08-06T08:09:04;4.77;;;4.20;;
31018;SDS011;17689;45.610;5.858;2022-08-06T08:11:32;7.93;;;4.50;;
31018;SDS011;17689;45.610;5.858;2022-08-06T08:13:58;5.10;;;4.30;;
31018;SDS011;17689;45.610;5.858;2022-08-06T08:16:27;6.73;;;4.30;;
31018;SDS011;17689;45.610;5.858;2022-08-06T08:18:53;4.80;;;4.27;;
31018;SDS011;17689;45.610;5.858;2022-08-06T08:21:19;4.87;;;4.37;;
31018;SDS011;17689;45.610;5.858;2022-08-06T08:23:47;4.90;;;4.40;;
31018;SDS011;17689;45.610;5.858;2022-08-06T08:26:13;6.33;;;4.50;;
31018;SDS011;17689;45.610;5.858;2022-08-06T08:28:39;5.40;;;4.70;;
31018;SDS011;17689;45.610;5.858;2022-08-06T08:31:05;7.07;;;4.53;;
31018;SDS011;17689;45.610;5.858;2022-08-06T08:33:33;4.83;;;4.27;;
31018;SDS011;17689;45.610;5.858;2022-08-06T08:36:00;7.30;;;4.90;;
31018;SDS011;17689;45.610;5.858;2022-08-06T08:38:30;6.13;;;4.80;;
31018;SDS011;17689;45.610;5.858;2022-08-06T08:41:00;5.63;;;5.07;;
31018;SDS011;17689;45.610;5.858;2022-08-06T08:43:33;6.57;;;4.43;;
31018;SDS011;17689;45.610;5.858;2022-08-06T08:46:00;4.97;;;4.57;;
31018;SDS011;17689;45.610;5.858;2022-08-06T08:48:27;5.77;;;4.50;;
31018;SDS011;17689;45.610;5.858;2022-08-06T08:50:56;6.17;;;4.60;;
31018;SDS011;17689;45.610;5.858;2022-08-06T08:53:27;5.60;;;5.00;;
31018;SDS011;17689;45.610;5.858;2022-08-06T08:55:54;5.50;;;4.93;;
31018;SDS011;17689;45.610;5.858;2022-08-06T08:58:21;6.00;;;5.00;;
31018;SDS011;17689;45.610;5.858;2022-08-06T09:00:47;5.70;;;4.80;;
31018;SDS011;17689;45.610;5.858;2022-08-06T09:03:14;5.30;;;4.80;;
31018;SDS011;17689;45.610;5.858;2022-08-06T09:05:41;5.03;;;4.53;;
31018;SDS011;17689;45.610;5.858;2022-08-06T09:08:08;6.60;;;5.00;;
31018;SDS011;17689;45.610;5.858;2022-08-06T09:10:36;5.10;;;4.60;;
31018;SDS011;17689;45.610;5.858;2022-08-06T09:13:02;7.70;;;5.13;;
31018;SDS011;17689;45.610;5.858;2022-08-06T09:15:29;5.27;;;4.77;;
31018;SDS011;17689;45.610;5.858;2022-08-06T09:17:55;5.30;;;4.70;;
31018;SDS011;17689;45.610;5.858;2022-08-06T09:20:21;5.50;;;5.00;;
31018;SDS011;17689;45.610;5.858;2022-08-06T09:22:47;8.13;;;5.20;;
31018;SDS011;17689;45.610;5.858;2022-08-06T09:25:36;5.40;;;4.90;;
31018;SDS011;17689;45.610;5.858;2022-08-06T09:28:07;6.33;;;4.83;;
31018;SDS011;17689;45.610;5.858;2022-08-06T09:30:34;7.00;;;4.90;;
31018;SDS011;17689;45.610;5.858;2022-08-06T09:33:00;5.20;;;4.80;;
31018;SDS011;17689;45.610;5.858;2022-08-06T09:35:29;4.90;;;4.43;;
31018;SDS011;17689;45.610;5.858;2022-08-06T09:37:59;5.47;;;4.50;;
31018;SDS011;17689;45.610;5.858;2022-08-06T09:40:26;4.80;;;4.40;;
31018;SDS011;17689;45.610;5.858;2022-08-06T09:42:52;5.07;;;4.50;;
31018;SDS011;17689;45.610;5.858;2022-08-06T09:45:19;5.27;;;4.00;;
31018;SDS011;17689;45.610;5.858;2022-08-06T09:47:46;6.10;;;4.40;;
31018;SDS011;17689;45.610;5.858;2022-08-06T09:50:12;8.20;;;4.47;;
31018;SDS011;17689;45.610;5.858;2022-08-06T09:52:39;4.80;;;4.40;;
31018;SDS011;17689;45.610;5.858;2022-08-06T09:55:05;5.20;;;4.10;;
31018;SDS011;17689;45.610;5.858;2022-08-06T09:57:44;4.70;;;4.30;;
31018;SDS011;17689;45.610;5.858;2022-08-06T10:00:23;4.90;;;4.30;;
31018;SDS011;17689;45.610;5.858;2022-08-06T10:02:54;3.90;;;3.60;;
31018;SDS011;17689;45.610;5.858;2022-08-06T10:05:21;4.87;;;4.27;;
31018;SDS011;17689;45.610;5.858;2022-08-06T10:08:01;5.27;;;3.93;;
31018;SDS011;17689;45.610;5.858;2022-08-06T10:13:13;3.97;;;3.67;;
31018;SDS011;17689;45.610;5.858;2022-08-06T10:15:41;4.17;;;3.77;;
31018;SDS011;17689;45.610;5.858;2022-08-06T10:18:09;4.00;;;3.53;;
31018;SDS011;17689;45.610;5.858;2022-08-06T10:20:35;4.17;;;3.60;;
31018;SDS011;17689;45.610;5.858;2022-08-06T10:23:03;4.77;;;3.90;;
31018;SDS011;17689;45.610;5.858;2022-08-06T10:25:34;4.50;;;4.03;;
31018;SDS011;17689;45.610;5.858;2022-08-06T10:28:01;4.47;;;4.07;;
31018;SDS011;17689;45.610;5.858;2022-08-06T10:30:28;5.30;;;4.00;;
31018;SDS011;17689;45.610;5.858;2022-08-06T10:33:05;3.90;;;3.50;;
31018;SDS011;17689;45.610;5.858;2022-08-06T10:35:31;4.50;;;4.00;;
31018;SDS011;17689;45.610;5.858;2022-08-06T10:37:59;4.20;;;3.80;;
31018;SDS011;17689;45.610;5.858;2022-08-06T10:40:28;4.43;;;3.50;;
31018;SDS011;17689;45.610;5.858;2022-08-06T10:42:54;5.30;;;4.20;;
31018;SDS011;17689;45.610;5.858;2022-08-06T10:45:21;4.27;;;3.87;;
31018;SDS011;17689;45.610;5.858;2022-08-06T10:47:47;4.10;;;3.80;;
31018;SDS011;17689;45.610;5.858;2022-08-06T10:50:13;3.80;;;3.40;;
31018;SDS011;17689;45.610;5.858;2022-08-06T10:52:40;3.90;;;3.60;;
31018;SDS011;17689;45.610;5.858;2022-08-06T10:55:06;7.73;;;3.53;;
31018;SDS011;17689;45.610;5.858;2022-08-06T10:57:33;3.77;;;3.40;;
31018;SDS011;17689;45.610;5.858;2022-08-06T11:00:00;3.60;;;3.30;;
31018;SDS011;17689;45.610;5.858;2022-08-06T11:05:05;3.63;;;3.33;;
31018;SDS011;17689;45.610;5.858;2022-08-06T11:07:42;4.10;;;3.70;;
31018;SDS011;17689;45.610;5.858;2022-08-06T11:10:18;4.10;;;3.67;;
31018;SDS011;17689;45.610;5.858;2022-08-06T11:15:14;4.23;;;3.80;;
31018;SDS011;17689;45.610;5.858;2022-08-06T11:17:42;3.73;;;3.43;;
31018;SDS011;17689;45.610;5.858;2022-08-06T11:20:08;3.93;;;3.63;;
31018;SDS011;17689;45.610;5.858;2022-08-06T11:22:39;4.63;;;3.70;;
31018;SDS011;17689;45.610;5.858;2022-08-06T11:25:06;4.67;;;3.33;;
31018;SDS011;17689;45.610;5.858;2022-08-06T11:27:55;4.07;;;3.50;;
31018;SDS011;17689;45.610;5.858;2022-08-06T11:30:42;4.30;;;3.87;;
31018;SDS011;17689;45.610;5.858;2022-08-06T11:33:09;4.07;;;3.47;;
31018;SDS011;17689;45.610;5.858;2022-08-06T11:38:03;4.17;;;3.50;;
31018;SDS011;17689;45.610;5.858;2022-08-06T11:43:41;4.03;;;3.63;;
31018;SDS011;17689;45.610;5.858;2022-08-06T11:49:09;4.90;;;3.40;;
31018;SDS011;17689;45.610;5.858;2022-08-06T11:51:37;3.83;;;3.50;;
31018;SDS011;17689;45.610;5.858;2022-08-06T11:59:28;4.50;;;3.80;;
31018;SDS011;17689;45.610;5.858;2022-08-06T12:01:54;3.73;;;3.33;;
31018;SDS011;17689;45.610;5.858;2022-08-06T12:09:44;3.60;;;3.30;;
31018;SDS011;17689;45.610;5.858;2022-08-06T12:14:53;4.20;;;3.80;;
31018;SDS011;17689;45.610;5.858;2022-08-06T12:17:23;4.13;;;3.43;;
31018;SDS011;17689;45.610;5.858;2022-08-06T12:19:53;3.77;;;3.47;;
31018;SDS011;17689;45.610;5.858;2022-08-06T12:22:20;4.40;;;4.00;;
31018;SDS011;17689;45.610;5.858;2022-08-06T12:24:51;4.63;;;3.40;;
31018;SDS011;17689;45.610;5.858;2022-08-06T12:27:20;3.80;;;3.50;;
31018;SDS011;17689;45.610;5.858;2022-08-06T12:29:46;4.23;;;3.50;;
31018;SDS011;17689;45.610;5.858;2022-08-06T12:34:46;3.80;;;3.40;;
31018;SDS011;17689;45.610;5.858;2022-08-06T12:37:12;3.73;;;3.30;;
31018;SDS011;17689;45.610;5.858;2022-08-06T12:39:41;4.40;;;3.40;;
31018;SDS011;17689;45.610;5.858;2022-08-06T12:42:27;4.27;;;3.87;;
31018;SDS011;17689;45.610;5.858;2022-08-06T12:44:53;3.60;;;3.30;;
31018;SDS011;17689;45.610;5.858;2022-08-06T12:47:20;3.70;;;3.37;;
31018;SDS011;17689;45.610;5.858;2022-08-06T12:49:46;4.27;;;3.47;;
31018;SDS011;17689;45.610;5.858;2022-08-06T12:52:13;3.90;;;3.60;;
31018;SDS011;17689;45.610;5.858;2022-08-06T12:54:42;3.87;;;3.57;;
31018;SDS011;17689;45.610;5.858;2022-08-06T12:57:18;4.07;;;3.70;;
31018;SDS011;17689;45.610;5.858;2022-08-06T12:59:44;4.07;;;3.63;;
31018;SDS011;17689;45.610;5.858;2022-08-06T13:02:10;4.00;;;3.70;;
31018;SDS011;17689;45.610;5.858;2022-08-06T13:04:38;4.23;;;3.43;;
31018;SDS011;17689;45.610;5.858;2022-08-06T13:07:05;5.43;;;3.70;;
31018;SDS011;17689;45.610;5.858;2022-08-06T13:09:31;6.87;;;3.90;;
31018;SDS011;17689;45.610;5.858;2022-08-06T13:12:00;4.23;;;3.87;;
31018;SDS011;17689;45.610;5.858;2022-08-06T13:14:47;4.03;;;3.73;;
31018;SDS011;17689;45.610;5.858;2022-08-06T13:17:13;6.40;;;3.93;;
31018;SDS011;17689;45.610;5.858;2022-08-06T13:22:18;3.80;;;3.50;;
31018;SDS011;17689;45.610;5.858;2022-08-06T13:24:44;3.90;;;3.60;;
31018;SDS011;17689;45.610;5.858;2022-08-06T13:27:10;4.20;;;3.80;;
31018;SDS011;17689;45.610;5.858;2022-08-06T13:29:36;4.27;;;3.87;;
31018;SDS011;17689;45.610;5.858;2022-08-06T13:32:09;5.03;;;4.10;;
31018;SDS011;17689;45.610;5.858;2022-08-06T13:34:46;5.33;;;4.03;;
31018;SDS011;17689;45.610;5.858;2022-08-06T13:37:12;4.00;;;3.57;;
31018;SDS011;17689;45.610;5.858;2022-08-06T13:39:48;4.30;;;3.90;;
31018;SDS011;17689;45.610;5.858;2022-08-06T13:42:14;4.27;;;3.80;;
31018;SDS011;17689;45.610;5.858;2022-08-06T13:44:41;4.93;;;4.13;;
31018;SDS011;17689;45.610;5.858;2022-08-06T13:47:09;4.23;;;3.83;;
31018;SDS011;17689;45.610;5.858;2022-08-06T13:49:38;4.80;;;4.00;;
31018;SDS011;17689;45.610;5.858;2022-08-06T13:52:05;4.87;;;3.93;;
31018;SDS011;17689;45.610;5.858;2022-08-06T13:54:31;5.13;;;4.10;;
31018;SDS011;17689;45.610;5.858;2022-08-06T13:56:58;5.97;;;3.70;;
31018;SDS011;17689;45.610;5.858;2022-08-06T13:59:25;5.07;;;4.37;;
31018;SDS011;17689;45.610;5.858;2022-08-06T14:01:52;4.77;;;4.27;;
31018;SDS011;17689;45.610;5.858;2022-08-06T14:04:19;4.20;;;3.90;;
31018;SDS011;17689;45.610;5.858;2022-08-06T14:06:47;4.77;;;4.13;;
31018;SDS011;17689;45.610;5.858;2022-08-06T14:09:14;5.97;;;4.10;;
31018;SDS011;17689;45.610;5.858;2022-08-06T14:11:41;5.50;;;4.07;;
31018;SDS011;17689;45.610;5.858;2022-08-06T14:14:07;4.37;;;3.93;;
31018;SDS011;17689;45.610;5.858;2022-08-06T14:16:34;4.50;;;4.10;;
31018;SDS011;17689;45.610;5.858;2022-08-06T14:19:00;5.20;;;4.67;;
31018;SDS011;17689;45.610;5.858;2022-08-06T14:21:26;4.90;;;4.47;;
31018;SDS011;17689;45.610;5.858;2022-08-06T14:23:53;4.93;;;4.53;;
31018;SDS011;17689;45.610;5.858;2022-08-06T14:26:19;4.43;;;4.07;;
31018;SDS011;17689;45.610;5.858;2022-08-06T14:28:45;5.33;;;4.50;;
31018;SDS011;17689;45.610;5.858;2022-08-06T14:31:11;4.77;;;4.37;;
31018;SDS011;17689;45.610;5.858;2022-08-06T14:33:37;6.53;;;5.87;;
31018;SDS011;17689;45.610;5.858;2022-08-06T14:36:04;5.20;;;4.30;;
31018;SDS011;17689;45.610;5.858;2022-08-06T14:38:30;4.60;;;4.20;;
31018;SDS011;17689;45.610;5.858;2022-08-06T14:40:56;5.20;;;4.33;;
31018;SDS011;17689;45.610;5.858;2022-08-06T14:43:41;5.33;;;4.47;;
31018;SDS011;17689;45.610;5.858;2022-08-06T14:46:26;4.73;;;4.33;;
31018;SDS011;17689;45.610;5.858;2022-08-06T14:48:53;7.07;;;4.50;;
31018;SDS011;17689;45.610;5.858;2022-08-06T14:51:19;4.90;;;4.30;;
31018;SDS011;17689;45.610;5.858;2022-08-06T14:53:46;5.47;;;4.60;;
31018;SDS011;17689;45.610;5.858;2022-08-06T14:56:12;5.20;;;4.70;;
31018;SDS011;17689;45.610;5.858;2022-08-06T14:58:38;4.43;;;4.03;;
31018;SDS011;17689;45.610;5.858;2022-08-06T15:01:05;5.47;;;4.17;;
31018;SDS011;17689;45.610;5.858;2022-08-06T15:03:31;5.17;;;4.30;;
31018;SDS011;17689;45.610;5.858;2022-08-06T15:05:57;4.87;;;4.20;;
31018;SDS011;17689;45.610;5.858;2022-08-06T15:08:23;5.27;;;4.40;;
31018;SDS011;17689;45.610;5.858;2022-08-06T15:10:49;4.87;;;4.47;;
31018;SDS011;17689;45.610;5.858;2022-08-06T15:13:15;5.03;;;4.53;;
31018;SDS011;17689;45.610;5.858;2022-08-06T15:15:42;4.67;;;4.17;;
31018;SDS011;17689;45.610;5.858;2022-08-06T15:18:08;6.30;;;4.20;;
31018;SDS011;17689;45.610;5.858;2022-08-06T15:20:34;5.17;;;4.67;;
31018;SDS011;17689;45.610;5.858;2022-08-06T15:23:00;5.47;;;4.70;;
31018;SDS011;17689;45.610;5.858;2022-08-06T15:25:26;5.30;;;4.43;;
31018;SDS011;17689;45.610;5.858;2022-08-06T15:27:52;4.90;;;4.40;;
31018;SDS011;17689;45.610;5.858;2022-08-06T15:30:19;6.03;;;4.60;;
31018;SDS011;17689;45.610;5.858;2022-08-06T15:32:45;6.03;;;4.60;;
31018;SDS011;17689;45.610;5.858;2022-08-06T15:35:12;7.40;;;4.60;;
31018;SDS011;17689;45.610;5.858;2022-08-06T15:37:38;7.13;;;4.97;;
31018;SDS011;17689;45.610;5.858;2022-08-06T15:40:05;5.00;;;4.50;;
31018;SDS011;17689;45.610;5.858;2022-08-06T15:42:31;4.80;;;4.30;;
31018;SDS011;17689;45.610;5.858;2022-08-06T15:44:57;4.97;;;4.57;;
31018;SDS011;17689;45.610;5.858;2022-08-06T15:47:24;4.97;;;4.57;;
31018;SDS011;17689;45.610;5.858;2022-08-06T15:49:50;7.10;;;4.60;;
31018;SDS011;17689;45.610;5.858;2022-08-06T15:52:17;5.10;;;4.60;;
31018;SDS011;17689;45.610;5.858;2022-08-06T15:54:43;4.87;;;4.27;;
31018;SDS011;17689;45.610;5.858;2022-08-06T15:57:09;5.03;;;4.60;;
31018;SDS011;17689;45.610;5.858;2022-08-06T15:59:35;6.33;;;4.50;;
31018;SDS011;17689;45.610;5.858;2022-08-06T16:02:01;4.73;;;4.00;;